x

Norfolk, Va (44059) Weather Station

6:50pm - Sun 29th Mar 2015 All times are EDT. -4 hours from GMT.

  • Wind
    4mph
  • Air Temp 44°f
  • Sea Pressure 1024.8mb
  • Norfolk, Va
  • Norfolk, Va

More Historic Weather Station data

Upgrade to MSW Pro to gain access to the past 30 days of data for over 8000 Wavebouys and Weather Stations around the globe.

Join Pro

Comparision Forecast

View Surf forecast
   
Sun 03/29 6:50pm 4
mph
1024.8mb - 44f
6:40pm 4
mph
1024.8mb - 44f
6:30pm 4 7 mph 1024.8mb - 44f
6:20pm 4 7 mph 1024.7mb - 44f
6:10pm 4 7 mph 1024.7mb - 44f
6:00pm 4 7 mph 1024.7mb 48f 43f
5:50pm 4 7 mph 1024.8mb - 43f
5:40pm 4 7 mph 1024.8mb - 43f
5:30pm 4 9 mph 1025mb - 43f
5:20pm 7 9 mph 1025mb - 42f
5:10pm 7 11 mph 1025.1mb - 42f
5:00pm 4 9 mph 1025.1mb 48f 42f
4:50pm 7 9 mph 1025.2mb - 42f
4:40pm 7 9 mph 1025.4mb - 42f
4:30pm 7 9 mph 1025.6mb - 41f
4:20pm 7 11 mph 1025.9mb - 41f
4:10pm 7 11 mph 1026.1mb - 41f
4:00pm 9 13 mph 1026.2mb 48f 41f
3:50pm 9 13 mph 1026.4mb - 40f
3:40pm 9 13 mph 1026.4mb - 40f
3:30pm 7 11 mph 1026.3mb - 40f
3:20pm 9 11 mph 1026.3mb - 40f
3:10pm 9 11 mph 1026.4mb - 39f
3:00pm 9 11 mph 1026.6mb 48f 39f
2:50pm 9 13 mph 1026.8mb - 38f
2:40pm 11 16 mph 1027mb - 38f
2:30pm 9 13 mph 1027.1mb - 38f
2:20pm 11 18 mph 1027.3mb - 38f
2:10pm 11 18 mph 1027.5mb - 37f
2:00pm 11 16 mph 1027.7mb 47f 37f
1:50pm 11 18 mph 1027.9mb - 37f
1:40pm 9 13 mph 1028.1mb - 36f
1:30pm 9 16 mph 1028.2mb - 36f
1:20pm 9 13 mph 1028.3mb - 35f
1:10pm 9 16 mph 1028.4mb - 35f
1:00pm 9 13 mph 1028.4mb 47f 35f
12:50pm 11 18 mph 1028.5mb - 35f
12:40pm 9 18 mph 1028.5mb - 34f
12:30pm 9 13 mph 1028.5mb - 34f
12:20pm 9 13 mph 1028.5mb - 34f
12:10pm 9 18 mph 1028.7mb - 33f
12:00pm 11 16 mph 1028.8mb 47f 33f
11:50am 9 16 mph 1028.8mb - 33f
11:40am 11 16 mph 1028.8mb - 33f
11:30am 11 16 mph 1028.7mb - 32f
11:20am 11 18 mph 1028.7mb - 32f
11:10am 11 16 mph 1028.8mb - 32f
11:00am 9 16 mph 1028.8mb 47f 32f
10:50am 9 18 mph 1028.7mb - 32f
10:40am 9 13 mph 1028.6mb - 31f
10:30am 11 18 mph 1028.7mb - 31f
10:20am 9 16 mph 1028.7mb - 32f
10:10am 11 18 mph 1028.8mb - 31f
10:00am 13 18 mph 1028.9mb 47f 31f
9:50am 13 20 mph 1028.8mb - 31f
9:40am 13 20 mph 1028.7mb - 31f
9:30am 11 18 mph 1028.5mb - 31f
9:20am 13 20 mph 1028.5mb - 31f
9:10am 11 18 mph 1028.4mb - 31f
9:00am 13 20 mph 1028.3mb 47f 31f
8:50am 13 20 mph 1028.1mb - 30f
8:40am 13 20 mph 1028mb - 30f
8:30am 13 20 mph 1027.9mb - 30f
8:20am 16 20 mph 1027.8mb - 30f
8:10am 16 20 mph 1027.7mb - 30f
8:00am 13 20 mph 1027.6mb 47f 31f
7:50am 13 20 mph 1027.5mb - 30f
7:40am 16 22 mph 1027.3mb - 30f
7:30am 18 27 mph 1027.1mb - 30f
7:20am 16 22 mph 1027mb - 30f
7:10am 16 22 mph 1026.7mb - 30f
7:00am 16 22 mph 1026.5mb 47f 30f
6:50am 16 20 mph 1026.4mb - 30f
6:40am 13 20 mph 1026.2mb - 31f
6:30am 18 25 mph 1026.1mb - 31f
6:20am 18 27 mph 1025.9mb - 31f
6:10am 18 25 mph 1025.7mb - 31f
6:00am 18 25 mph 1025.5mb 47f 31f
5:50am 16 22 mph 1025.3mb - 31f
5:40am 16 22 mph 1025.1mb - 31f
5:30am 16 22 mph 1025mb - 31f
5:20am 16 20 mph 1024.8mb - 31f
5:10am 16 22 mph 1024.7mb - 32f
5:00am 16 25 mph 1024.7mb 47f 32f
4:50am 16 20 mph 1024.6mb - 32f
4:40am 18 22 mph 1024.5mb - 32f
4:30am 18 25 mph 1024.5mb - 32f
4:20am 18 25 mph 1024.5mb - 32f
4:10am 18 27 mph 1024.4mb - 32f
4:00am 16 27 mph 1024.2mb 47f 32f
3:50am 18 25 mph 1024.2mb - 32f
3:40am 18 22 mph 1024.2mb - 32f
3:30am 18 22 mph 1024.2mb - 33f
3:20am 20 27 mph 1024.1mb - 33f
3:10am 18 27 mph 1024mb - 33f
3:00am 18 25 mph 1024mb 47f 32f
2:50am 20 29 mph 1024mb - 33f
2:40am 20 31 mph 1024mb - 33f
2:30am 20 29 mph 1024mb - 33f
2:20am 18 25 mph 1024mb - 33f
2:10am 20 27 mph 1024.2mb - 33f
2:00am 18 25 mph 1024.2mb 47f 33f
1:50am 16 22 mph 1024.1mb - 33f
1:40am 16 22 mph 1024mb - 33f
1:30am 16 22 mph 1023.9mb - 33f
1:20am 16 25 mph 1023.9mb - 34f
1:10am 18 25 mph 1023.9mb - 34f
1:00am 18 22 mph 1023.9mb 48f 34f
12:50am 16 25 mph 1023.9mb - 33f
12:40am 18 22 mph 1023.8mb - 33f
12:30am 16 22 mph 1023.8mb - 34f
12:20am 18 25 mph 1023.7mb - 34f
12:10am 16 25 mph 1023.5mb - 34f
12:00am 16 25 mph 1023.5mb 48f 34f
Sat 03/28 11:50pm 16 20 mph 1023.5mb - 34f
11:40pm 16 20 mph 1023.4mb - 34f
11:30pm 16 22 mph 1023.3mb - 34f
11:20pm 16 22 mph 1023.2mb - 34f
11:10pm 16 20 mph 1023.1mb - 34f
11:00pm 18 25 mph 1023.1mb 48f 34f
10:50pm 16 22 mph 1023mb - 34f
10:40pm 18 22 mph 1023mb - 34f
10:30pm 20 31 mph 1022.8mb - 34f
10:20pm 20 27 mph 1022.7mb - 34f
10:10pm 16 22 mph 1022.6mb - 35f
10:00pm 13 22 mph 1022.5mb 48f 35f
9:50pm 18 25 mph 1022.3mb - 35f
9:40pm 18 25 mph 1022mb - 35f
9:30pm 16 20 mph 1021.8mb - 36f
9:20pm 18 25 mph 1021.6mb - 36f
9:10pm 18 25 mph 1021.3mb - 36f
9:00pm 18 25 mph 1021mb 48f 37f
8:50pm 18 25 mph 1020.7mb - 37f
8:40pm 16 25 mph 1020.3mb - 38f
8:30pm 13 22 mph 1019.9mb - 38f
8:20pm 11 16 mph 1019.5mb - 39f
8:10pm 11 18 mph 1019.3mb - 39f
8:00pm 11 16 mph 1019mb 48f 40f
7:50pm 9 13 mph 1018.8mb - 40f
7:40pm 9 18 mph 1018.5mb - 40f
7:30pm 9 16 mph 1018.3mb - 39f
7:20pm 9 16 mph 1018.1mb - 39f
7:10pm 9 13 mph 1017.9mb - 39f
7:00pm 11 18 mph 1017.8mb 48f 39f
6:50pm 11 16 mph 1017.5mb - 39f
6:40pm 11 18 mph 1017.5mb - 39f
6:30pm 11 18 mph 1017.4mb - 40f
6:20pm 9 13 mph 1017.1mb - 39f
6:10pm 13 18 mph 1017.1mb - 39f
6:00pm 13 20 mph 1016.9mb 48f 39f
5:50pm 11 16 mph 1016.6mb - 39f
5:40pm 9 16 mph 1016.4mb - 39f
5:30pm 9 16 mph 1016.3mb - 39f
5:20pm 11 16 mph 1016.1mb - 39f
5:10pm 11 20 mph 1016.2mb - 39f
5:00pm 13 20 mph 1016.1mb 49f 39f
4:50pm 9 18 mph 1016.1mb - 38f
4:40pm 9 16 mph 1015.9mb - 38f
4:30pm 9 16 mph 1015.8mb - 38f
4:20pm 11 16 mph 1015.7mb - 38f
4:10pm 11 18 mph 1015.5mb - 38f
4:00pm 13 22 mph 1015.5mb 49f 38f
3:50pm 11 16 mph 1015.4mb - 38f
3:40pm 9 16 mph 1015.4mb - 38f
3:30pm 11 16 mph 1015.4mb - 38f
3:20pm 13 20 mph 1015.4mb - 37f
3:10pm 16 22 mph 1015.4mb - 37f
3:00pm 16 22 mph 1015.3mb 49f 38f
2:50pm 13 20 mph 1015.1mb - 38f
2:40pm 13 20 mph 1015.1mb - 37f
2:30pm 13 20 mph 1015.1mb - 37f
2:20pm 13 22 mph 1015.2mb - 37f
2:10pm 11 20 mph 1015.1mb - 38f
2:00pm 11 16 mph 1015.1mb 49f 38f
1:50pm 9 16 mph 1015.1mb - 37f
1:40pm 11 18 mph 1015mb - 37f
1:30pm 11 18 mph 1015mb - 37f
1:20pm 11 18 mph 1014.9mb - 37f
1:10pm 16 22 mph 1014.9mb - 37f
1:00pm 13 22 mph 1014.7mb 49f 37f
12:50pm 13 20 mph 1014.7mb - 37f
12:40pm 11 18 mph 1014.8mb - 37f
12:30pm 11 20 mph 1014.8mb - 37f
12:20pm 11 18 mph 1014.8mb - 37f
12:10pm 11 16 mph 1014.7mb - 37f
12:00pm 11 16 mph 1014.7mb 49f 37f
11:50am 11 18 mph 1014.7mb - 37f
11:40am 13 20 mph 1014.6mb - 37f
11:30am 13 20 mph 1014.6mb - 37f
11:20am 13 20 mph 1014.6mb - 37f
11:10am 11 18 mph 1014.4mb - 38f
11:00am 13 22 mph 1014.4mb 49f 38f
10:50am 13 18 mph 1014.4mb - 37f
10:40am 16 20 mph 1014.4mb - 38f
10:30am 11 20 mph 1014.3mb - 38f
10:20am 13 20 mph 1014.1mb - 38f
10:10am 13 18 mph 1014mb - 37f
10:00am 13 20 mph 1013.9mb 49f 38f
9:50am 16 22 mph 1013.7mb - 38f
9:40am 16 25 mph 1013.6mb - 38f
9:30am 16 22 mph 1013.6mb - 37f
9:20am 16 22 mph 1013.5mb - 38f
9:10am 13 20 mph 1013.3mb - 38f
9:00am 16 22 mph 1013.1mb 49f 38f
8:50am 16 22 mph 1012.8mb - 38f
8:40am 16 22 mph 1012.7mb - 38f
8:30am 16 22 mph 1012.6mb - 38f
8:20am 16 22 mph 1012.4mb - 38f
8:10am 18 22 mph 1012.5mb - 38f
8:00am 18 25 mph 1012.3mb 49f 38f
7:50am 16 20 mph 1011.9mb - 39f
7:40am 16 22 mph 1011.7mb - 39f
7:30am 13 20 mph 1011.6mb - 39f
7:20am 16 22 mph 1011.4mb - 39f
7:10am 20 27 mph 1011.1mb - 39f
7:00am 18 27 mph 1010.9mb 49f 39f
6:50am 18 27 mph 1010.6mb - 40f
6:40am 22 29 mph 1010.4mb - 40f
6:30am 18 25 mph 1010.2mb - 40f
6:20am 18 25 mph 1009.9mb - 40f
6:10am 20 29 mph 1009.6mb - 40f
6:00am 22 29 mph 1009.5mb 49f 40f
5:50am 20 29 mph 1009.3mb - 40f
5:40am 18 25 mph 1009.1mb - 41f
5:30am 20 25 mph 1008.9mb - 41f
5:20am 18 25 mph 1008.8mb - 41f
5:10am 20 25 mph 1008.6mb - 42f
5:00am 18 25 mph 1008.5mb 49f 42f
4:50am 18 25 mph 1008.4mb - 42f
4:40am 18 25 mph 1008.1mb - 42f
4:30am 16 22 mph 1007.7mb - 42f
4:20am 16 25 mph 1007.4mb - 42f
4:10am 16 22 mph 1007.5mb - 42f
4:00am 16 22 mph 1007.5mb 49f 42f
3:50am 16 20 mph 1007.5mb - 42f
3:40am 16 20 mph 1007.6mb - 43f
3:30am 16 20 mph 1007.4mb - 43f
3:20am 13 18 mph 1007.1mb - 43f
3:10am 13 22 mph 1007mb - 43f
3:00am 16 20 mph 1006.8mb 49f 43f
2:50am 13 18 mph 1007mb - 43f
2:40am 13 18 mph 1007.1mb - 43f
2:30am 11 18 mph 1007.3mb - 42f
2:20am 11 16 mph 1007.3mb - 42f
2:10am 11 16 mph 1007.3mb - 42f
2:00am 11 18 mph 1007.4mb 49f 41f
1:50am 11 16 mph 1007.6mb - 41f
1:40am 9 13 mph 1007.6mb - 41f
1:30am 9 16 mph 1007.6mb - 41f
1:20am 11 16 mph 1007.6mb - 41f
1:10am 9 13 mph 1007.6mb - 41f
1:00am 9 13 mph 1007.6mb 50f 41f
12:50am 9 13 mph 1007.6mb - 41f
12:40am 9 13 mph 1007.6mb - 41f
12:30am 9 13 mph 1007.5mb - 41f
12:20am 11 16 mph 1007.5mb - 41f
12:10am 9 13 mph 1007.5mb - 41f
12:00am 11 13 mph 1007.5mb 49f 41f
Fri 03/27 11:50pm 9 16 mph 1007.7mb - 41f
11:40pm 9 11 mph 1007.8mb - 41f
11:30pm 9 11 mph 1007.7mb - 41f
11:20pm 7 11 mph 1007.6mb - 41f
11:10pm 7 11 mph 1007.5mb - 41f
11:00pm 7 11 mph 1007.5mb 49f 41f
10:50pm 7 9 mph 1007.5mb - 40f
10:40pm 7 9 mph 1007.4mb - 40f
10:30pm 7 11 mph 1007.5mb - 40f
10:20pm 7 9 mph 1007.6mb - 40f
10:10pm 4 9 mph 1007.9mb - 40f
10:00pm 7 9 mph 1007.9mb 49f 40f
9:50pm 7 9 mph 1007.9mb - 40f
9:40pm 7 9 mph 1007.9mb - 40f
9:30pm 7 11 mph 1008.1mb - 40f
9:20pm 9 11 mph 1008.4mb - 40f
9:10pm 9 11 mph 1008.1mb - 39f
9:00pm 9 11 mph 1008.2mb 49f 39f
8:50pm 9 13 mph 1008.2mb - 39f
8:40pm 9 13 mph 1008.2mb - 40f
8:30pm 9 13 mph 1008.2mb - 40f
8:20pm 11 16 mph 1008.1mb - 40f
8:10pm 11 16 mph 1008.2mb - 40f
8:00pm 9 13 mph 1008mb 49f 40f
7:50pm 13 18 mph 1007.9mb - 40f
7:40pm 11 18 mph 1007.5mb - 40f
7:30pm 13 18 mph 1007.5mb - 40f
7:20pm 11 18 mph 1007.7mb - 40f
7:10pm 11 16 mph 1007.6mb - 40f
7:00pm 11 18 mph 1007.6mb 49f 40f
6:50pm 11 16 mph 1007.1mb - 40f
6:40pm 11 16 mph 1007.2mb - 40f
6:30pm 11 18 mph 1007.2mb - 41f
6:20pm 11 16 mph 1007.2mb - 41f
6:10pm 11 18 mph 1007.1mb - 41f
6:00pm 11 16 mph 1007.1mb 49f 41f
5:50pm 13 18 mph 1006.9mb - 41f
5:40pm 13 16 mph 1006.6mb - 41f
5:30pm 13 18 mph 1006.4mb - 41f
5:20pm 13 20 mph 1006.5mb - 41f
5:10pm 11 16 mph 1007.1mb - 41f
5:00pm 9 13 mph 1007.6mb 50f 41f
4:50pm 9 11 mph 1007.3mb - 42f
4:40pm 9 18 mph 1006.9mb - 42f
4:30pm 11 16 mph 1006.6mb - 42f
4:20pm 11 16 mph 1006.1mb - 42f
4:10pm 11 18 mph 1006mb - 42f
4:00pm 13 20 mph 1006.1mb 50f 42f
3:50pm 13 20 mph 1006.2mb - 42f
3:40pm 13 18 mph 1006.3mb - 42f
3:30pm 13 22 mph 1007mb - 42f
3:20pm 13 18 mph 1007.1mb - 42f
3:10pm 11 18 mph 1006.7mb - 42f
3:00pm 11 20 mph 1006.6mb 50f 42f
2:50pm 13 20 mph 1007.5mb - 42f
2:40pm 16 25 mph 1007.9mb - 42f
2:30pm 18 25 mph 1007.7mb - 42f
2:20pm 16 22 mph 1007.5mb - 42f
2:10pm 13 18 mph 1007.4mb - 42f
2:00pm 13 20 mph 1007.4mb 50f 42f
1:50pm 13 22 mph 1007.8mb - 42f
1:40pm 13 20 mph 1007.6mb - 42f
1:30pm 18 27 mph 1008mb - 42f
1:20pm 16 25 mph 1007.9mb - 42f
1:10pm 16 22 mph 1007.8mb - 42f
1:00pm 18 27 mph 1008mb 50f 42f
12:50pm 20 27 mph 1007.9mb - 42f
12:40pm 20 27 mph 1007.7mb - 43f
12:30pm 16 25 mph 1007.3mb - 43f
12:20pm 18 25 mph 1007.3mb - 43f
12:10pm 16 22 mph 1007.1mb - 43f
12:00pm 16 22 mph 1006.9mb 50f 44f
11:50am 18 25 mph 1007mb - 44f
11:40am 16 25 mph 1006.8mb - 44f
11:30am 16 20 mph 1006.9mb - 44f
11:20am 18 25 mph 1007.1mb - 44f
11:10am 16 22 mph 1006.9mb - 44f
11:00am 18 22 mph 1006.6mb 50f 45f
10:50am 16 25 mph 1006.8mb - 45f
10:40am 16 25 mph 1007mb - 45f
10:30am 16 25 mph 1006.9mb - 45f
10:20am 16 25 mph 1006.9mb - 45f
10:10am 16 22 mph 1006.9mb - 45f
10:00am 18 27 mph 1007mb 50f 45f
9:50am 20 29 mph 1007mb - 45f
9:40am 20 27 mph 1006.7mb - 45f
9:30am 18 25 mph 1006.5mb - 45f
9:20am 18 25 mph 1006.7mb - 45f
9:10am 16 27 mph 1006.8mb - 46f
9:00am 20 29 mph 1006.7mb 50f 46f
8:50am 20 29 mph 1006.8mb - 46f
8:40am 16 25 mph 1006.8mb - 46f
8:30am 18 27 mph 1006.8mb - 46f
8:20am 18 27 mph 1006.8mb - 47f
8:10am 18 29 mph 1006.5mb - 47f
8:00am 18 27 mph 1006.5mb 50f 47f
7:50am 18 27 mph 1006.5mb - 47f
7:40am 16 22 mph 1006.3mb - 47f
7:30am 18 22 mph 1006.4mb - 47f
7:20am 16 25 mph 1006.1mb - 47f
7:10am 16 25 mph 1006mb - 47f
7:00am 18 25 mph 1005.9mb 50f 47f
6:50am 16 22 mph 1005.8mb - 48f
6:40am 13 20 mph 1005.5mb - 48f
6:30am 13 20 mph 1005.2mb - 48f
6:20am 13 20 mph 1005.1mb - 48f
6:10am 13 22 mph 1005mb - 49f
6:00am 13 22 mph 1004.8mb 50f 49f
5:50am 11 18 mph 1004.5mb - 50f
5:40am 13 20 mph 1004.2mb - 50f
5:30am 16 22 mph 1004.1mb - 50f
5:20am 16 25 mph 1004mb - 50f
5:10am 18 27 mph 1004mb - 50f
5:00am 18 27 mph 1003.9mb 51f 53f
4:50am 13 27 mph 1003.3mb - 60f
4:40am 7 11 mph 1002.8mb - 63f
4:30am 7 11 mph 1003mb - 62f
4:20am 7 11 mph 1003mb - 63f
4:10am 9 13 mph 1003.1mb - 63f
4:00am 9 13 mph 1003.2mb 51f 63f
3:50am 9 13 mph 1003.3mb - 64f
3:40am 9 16 mph 1003.5mb - 64f
3:30am 9 13 mph 1003.6mb - 64f
3:20am 9 13 mph 1003.5mb - 63f
3:10am 9 18 mph 1003.6mb - 64f
3:00am 7 11 mph 1003.8mb 51f 64f
2:50am 7 11 mph 1004mb - 64f
2:40am 7 11 mph 1004.1mb - 64f
2:30am 9 13 mph 1004.3mb - 64f
2:20am 7 11 mph 1004.4mb - 64f
2:10am 9 13 mph 1004.6mb - 65f
2:00am 9 16 mph 1004.6mb 51f 65f
1:50am 9 13 mph 1004.7mb - 65f
1:40am 9 13 mph 1004.8mb - 65f
1:30am 9 13 mph 1004.9mb - 64f
1:20am 7 11 mph 1004.9mb - 64f
1:10am 7 11 mph 1005mb - 64f
1:00am 9 11 mph 1005mb 51f 64f
12:50am 9 16 mph 1005mb - 64f
12:40am 9 13 mph 1005mb - 64f
12:30am 9 13 mph 1004.9mb - 64f
12:20am 9 13 mph 1005mb - 65f
12:10am 9 13 mph 1005.2mb - 65f
12:00am 9 13 mph 1005.3mb 51f 65f
Thu 03/26 11:50pm 9 13 mph 1005.4mb - 65f
11:40pm 11 13 mph 1005.4mb - 65f
11:30pm 11 16 mph 1005.4mb - 65f
11:20pm 11 13 mph 1005.4mb - 65f
11:10pm 11 16 mph 1005.5mb - 65f
11:00pm 9 13 mph 1005.5mb 51f 65f
10:50pm 9 13 mph 1005.5mb - 66f
10:40pm 9 13 mph 1005.5mb - 66f
10:30pm 9 16 mph 1005.4mb - 66f
10:20pm 9 13 mph 1005.2mb - 66f
10:10pm 9 13 mph 1005.2mb - 66f
10:00pm 9 13 mph 1005.2mb 51f 66f
9:50pm 9 13 mph 1005.1mb - 66f
9:40pm 9 11 mph 1005mb - 65f
9:30pm 7 11 mph 1005mb - 65f
9:20pm 9 13 mph 1005.1mb - 66f
9:10pm 9 13 mph 1005mb - 66f
9:00pm 9 13 mph 1005mb 50f 66f
8:50pm 9 13 mph 1005mb - 66f
8:40pm 11 16 mph 1005mb - 65f
8:30pm 9 13 mph 1005mb - 65f
8:20pm 9 11 mph 1004.8mb - 65f
8:10pm 9 13 mph 1004.8mb - 65f
8:00pm 9 11 mph 1004.8mb 50f 65f
7:50pm 7 11 mph 1004.8mb - 64f
7:40pm 9 11 mph 1004.8mb - 64f
7:30pm 9 11 mph 1004.8mb - 65f
7:20pm 9 13 mph 1004.7mb - 65f
7:10pm 9 13 mph 1004.8mb - 65f
7:00pm 9 13 mph 1005mb 51f 65f
6:50pm 11 16 mph 1005.1mb - 65f
6:40pm 11 18 mph 1005.2mb - 65f
6:30pm 11 16 mph 1005.2mb - 65f
6:20pm 9 13 mph 1005.3mb - 64f
6:10pm 11 16 mph 1005.3mb - 64f
6:00pm 9 16 mph 1005.4mb 51f 64f
5:50pm 11 18 mph 1005.5mb - 64f
5:40pm 11 18 mph 1005.6mb - 64f
5:30pm 11 16 mph 1005.7mb - 64f
5:20pm 9 16 mph 1005.6mb - 63f
5:10pm 7 11 mph 1005.6mb - 63f
5:00pm 11 18 mph 1006mb 50f 63f
4:50pm 9 18 mph 1006.4mb - 63f
4:40pm 9 16 mph 1006.6mb - 63f
4:30pm 11 13 mph 1006.9mb - 63f
4:20pm 11 16 mph 1007mb - 63f
4:10pm 9 13 mph 1007mb - 63f
4:00pm 13 18 mph 1007.1mb 50f 63f
3:50pm 11 22 mph 1007.3mb - 64f
3:40pm 9 16 mph 1007.1mb - 64f
3:30pm 9 13 mph 1007mb - 64f
3:20pm 7 11 mph 1007.1mb - 64f
3:10pm 9 13 mph 1007.6mb - 65f
3:00pm 9 13 mph 1008mb 50f 66f
2:50pm 13 18 mph 1008.3mb - 66f
2:40pm 13 20 mph 1008.5mb - 67f
2:30pm 18 25 mph 1008.5mb - 67f
2:20pm 18 25 mph 1008.7mb - 67f
2:10pm 18 25 mph 1009mb - 67f
2:00pm 20 29 mph 1009.4mb 50f 67f
1:50pm 20 29 mph 1009.6mb - 67f
1:40pm 18 29 mph 1009.9mb - 67f
1:30pm 18 34 mph 1010.2mb - 68f
1:20pm 16 25 mph 1010.4mb - 68f
1:10pm 18 27 mph 1010.7mb - 67f
1:00pm 18 25 mph 1010.8mb 50f 67f
12:50pm 16 25 mph 1011mb - 67f
12:40pm 13 20 mph 1011.3mb - 66f
12:30pm 13 22 mph 1011.3mb - 66f
12:20pm 13 22 mph 1011.4mb - 67f
12:10pm 13 22 mph 1011.7mb - 67f
12:00pm 16 25 mph 1011.9mb 50f 67f
11:50am 16 25 mph 1012.2mb - 67f
11:40am 16 25 mph 1012.8mb - 68f
11:30am 16 22 mph 1012.8mb - 68f
11:20am 13 25 mph 1012.6mb - 67f
11:10am 11 20 mph 1013mb - 67f
11:00am 13 22 mph 1013.2mb 50f 67f
10:50am 11 20 mph 1013.3mb - 67f
10:40am 13 25 mph 1013.3mb - 67f
10:30am 13 20 mph 1013.6mb - 67f
10:20am 13 25 mph 1013.7mb - 67f
10:10am 13 20 mph 1013.7mb - 67f
10:00am 13 22 mph 1013.6mb 50f 67f
9:50am 16 22 mph 1013.8mb - 67f
9:40am 11 18 mph 1014mb - 67f
9:30am 11 18 mph 1014.3mb - 66f
9:20am 13 18 mph 1014.5mb - 66f
9:10am 13 18 mph 1014.7mb - 65f
9:00am 11 18 mph 1014.8mb 50f 65f
8:50am 9 13 mph 1014.9mb - 64f
8:40am 9 16 mph 1014.9mb - 64f
8:30am 13 18 mph 1015.1mb - 64f
8:20am 11 18 mph 1015.2mb - 64f
8:10am 11 16 mph 1015mb - 64f
8:00am 9 16 mph 1015.1mb 49f 64f
7:50am 11 18 mph 1015.3mb - 64f
7:40am 11 20 mph 1015.5mb - 64f
7:30am 13 20 mph 1015.4mb - 64f
7:20am 11 20 mph 1015.4mb - 63f
7:10am 13 20 mph 1015.5mb - 63f
7:00am 11 18 mph 1015.5mb 49f 63f
6:50am 11 16 mph 1015.7mb - 63f
6:40am 9 16 mph 1015.6mb - 63f
6:30am 11 16 mph 1015.5mb - 63f
6:20am 9 13 mph 1015.6mb - 63f
6:10am 11 18 mph 1016mb - 63f
6:00am 11 16 mph 1016.1mb 50f 63f
5:50am 11 18 mph 1016.2mb - 63f
5:40am 11 18 mph 1016.3mb - 63f
5:30am 9 13 mph 1016.3mb - 63f
5:20am 11 16 mph 1016.3mb - 63f
5:10am 9 16 mph 1016.3mb - 63f
5:00am 11 13 mph 1016.4mb 49f 63f
4:50am 11 18 mph 1016.6mb - 63f
4:40am 11 20 mph 1016.7mb - 63f
4:30am 11 20 mph 1016.9mb - 63f
4:20am 11 18 mph 1017.1mb - 63f
4:10am 11 16 mph 1017.2mb - 63f
4:00am 9 18 mph 1017.4mb 49f 63f
3:50am 11 16 mph 1017.5mb - 63f
3:40am 11 18 mph 1017.8mb - 62f
3:30am 11 18 mph 1017.8mb - 62f
3:20am 11 18 mph 1017.8mb - 62f
3:10am 11 13 mph 1018mb - 62f
3:00am 9 16 mph 1018.2mb 49f 62f
2:50am 9 11 mph 1018.5mb - 62f
2:40am 9 11 mph 1018.6mb - 62f
2:30am 7 11 mph 1018.7mb - 62f
2:20am 9 11 mph 1018.9mb - 62f
2:10am 9 11 mph 1019.1mb - 62f
2:00am 9 11 mph 1019.1mb 50f 62f
1:50am 9 13 mph 1019.3mb - 62f
1:40am 11 16 mph 1019.4mb - 62f
1:30am 9 13 mph 1019.5mb - 62f
1:20am 9 13 mph 1019.5mb - 62f
1:10am 9 16 mph 1019.6mb - 62f
1:00am 11 16 mph 1019.7mb 50f 62f
12:50am 9 16 mph 1019.8mb - 62f
12:40am 9 13 mph 1019.9mb - 62f
12:30am 9 13 mph 1020mb - 62f
12:20am 11 16 mph 1020.1mb - 62f
12:10am 11 16 mph 1020.3mb - 62f
12:00am 11 18 mph 1020.4mb 50f 62f
Wed 03/25 11:50pm 13 20 mph 1020.4mb - 62f
11:40pm 11 16 mph 1020.8mb - 62f
11:30pm 13 18 mph 1020.9mb - 62f